sensor_id;sensor_type;location;lat;lon;timestamp;pressure;altitude;pressure_sealevel;temperature;humidity
22389;BME280;11362;48.102;11.620;2023-03-16T00:00:08;95559.59;;;23.48;34.93
22389;BME280;11362;48.102;11.620;2023-03-16T00:02:33;95561.16;;;23.49;34.87
22389;BME280;11362;48.102;11.620;2023-03-16T00:04:59;95559.59;;;23.48;35.04
22389;BME280;11362;48.102;11.620;2023-03-16T00:07:24;95565.13;;;23.48;34.85
22389;BME280;11362;48.102;11.620;2023-03-16T00:09:49;95556.00;;;23.47;34.75
22389;BME280;11362;48.102;11.620;2023-03-16T00:12:17;95557.22;;;23.46;34.84
22389;BME280;11362;48.102;11.620;2023-03-16T00:14:44;95545.34;;;23.46;34.55
22389;BME280;11362;48.102;11.620;2023-03-16T00:17:12;95552.47;;;23.47;34.65
22389;BME280;11362;48.102;11.620;2023-03-16T00:19:37;95548.88;;;23.46;34.68
22389;BME280;11362;48.102;11.620;2023-03-16T00:22:03;95544.53;;;23.45;34.73
22389;BME280;11362;48.102;11.620;2023-03-16T00:24:28;95552.09;;;23.45;34.37
22389;BME280;11362;48.102;11.620;2023-03-16T00:26:53;95556.44;;;23.46;34.60
22389;BME280;11362;48.102;11.620;2023-03-16T00:29:19;95550.09;;;23.45;34.50
22389;BME280;11362;48.102;11.620;2023-03-16T00:31:45;95553.22;;;23.47;34.53
22389;BME280;11362;48.102;11.620;2023-03-16T00:34:11;95546.91;;;23.47;34.65
22389;BME280;11362;48.102;11.620;2023-03-16T00:36:37;95542.16;;;23.47;34.38
22389;BME280;11362;48.102;11.620;2023-03-16T00:39:04;95542.56;;;23.46;34.53
22389;BME280;11362;48.102;11.620;2023-03-16T00:41:29;95539.00;;;23.45;34.45
22389;BME280;11362;48.102;11.620;2023-03-16T00:43:55;95547.31;;;23.45;34.20
22389;BME280;11362;48.102;11.620;2023-03-16T00:46:20;95548.13;;;23.46;34.17
22389;BME280;11362;48.102;11.620;2023-03-16T00:48:46;95542.56;;;23.46;34.37
22389;BME280;11362;48.102;11.620;2023-03-16T00:51:14;95548.13;;;23.46;34.75
22389;BME280;11362;48.102;11.620;2023-03-16T00:53:41;95544.16;;;23.47;34.22
22389;BME280;11362;48.102;11.620;2023-03-16T00:56:08;95539.00;;;23.45;34.58
22389;BME280;11362;48.102;11.620;2023-03-16T00:58:35;95545.34;;;23.46;34.23
22389;BME280;11362;48.102;11.620;2023-03-16T01:01:06;95549.31;;;23.45;34.39
22389;BME280;11362;48.102;11.620;2023-03-16T01:03:32;95542.97;;;23.44;34.19
22389;BME280;11362;48.102;11.620;2023-03-16T01:06:01;95541.78;;;23.45;34.03
22389;BME280;11362;48.102;11.620;2023-03-16T01:08:27;95537.81;;;23.46;34.21
22389;BME280;11362;48.102;11.620;2023-03-16T01:10:53;95546.13;;;23.46;34.13
22389;BME280;11362;48.102;11.620;2023-03-16T01:13:19;95530.69;;;23.45;34.19
22389;BME280;11362;48.102;11.620;2023-03-16T01:15:44;95533.47;;;23.45;34.06
22389;BME280;11362;48.102;11.620;2023-03-16T01:18:09;95546.13;;;23.46;34.01
22389;BME280;11362;48.102;11.620;2023-03-16T01:20:35;95540.56;;;23.46;33.96
22389;BME280;11362;48.102;11.620;2023-03-16T01:23:00;95541.38;;;23.47;33.95
22389;BME280;11362;48.102;11.620;2023-03-16T01:25:25;95540.56;;;23.46;33.86
22389;BME280;11362;48.102;11.620;2023-03-16T01:27:51;95535.84;;;23.47;34.00
22389;BME280;11362;48.102;11.620;2023-03-16T01:30:16;95532.66;;;23.48;33.85
22389;BME280;11362;48.102;11.620;2023-03-16T01:32:41;95536.59;;;23.47;33.91
22389;BME280;11362;48.102;11.620;2023-03-16T01:35:07;95533.81;;;23.47;33.96
22389;BME280;11362;48.102;11.620;2023-03-16T01:37:32;95533.47;;;23.45;33.72
22389;BME280;11362;48.102;11.620;2023-03-16T01:39:57;95535.84;;;23.47;33.80
22389;BME280;11362;48.102;11.620;2023-03-16T01:42:23;95534.25;;;23.46;33.73
22389;BME280;11362;48.102;11.620;2023-03-16T01:47:15;95529.47;;;23.46;33.77
22389;BME280;11362;48.102;11.620;2023-03-16T01:49:40;95531.06;;;23.47;33.89
22389;BME280;11362;48.102;11.620;2023-03-16T01:52:12;95524.75;;;23.47;33.89
22389;BME280;11362;48.102;11.620;2023-03-16T01:54:47;95513.66;;;23.47;33.89
22389;BME280;11362;48.102;11.620;2023-03-16T01:57:17;95517.19;;;23.47;33.75
22389;BME280;11362;48.102;11.620;2023-03-16T01:59:45;95512.84;;;23.46;33.75
22389;BME280;11362;48.102;11.620;2023-03-16T02:02:13;95512.84;;;23.46;33.59
22389;BME280;11362;48.102;11.620;2023-03-16T02:04:49;95519.97;;;23.47;33.74
22389;BME280;11362;48.102;11.620;2023-03-16T02:07:20;95519.97;;;23.47;33.77
22389;BME280;11362;48.102;11.620;2023-03-16T02:09:49;95515.63;;;23.46;33.72
22389;BME280;11362;48.102;11.620;2023-03-16T02:12:17;95521.16;;;23.46;33.70
22389;BME280;11362;48.102;11.620;2023-03-16T02:14:44;95517.63;;;23.46;33.60
22389;BME280;11362;48.102;11.620;2023-03-16T02:17:10;95521.97;;;23.47;33.77
22389;BME280;11362;48.102;11.620;2023-03-16T02:22:21;95508.88;;;23.47;33.59
22389;BME280;11362;48.102;11.620;2023-03-16T02:24:46;95515.22;;;23.48;33.46
22389;BME280;11362;48.102;11.620;2023-03-16T02:27:13;95515.25;;;23.44;33.55
22389;BME280;11362;48.102;11.620;2023-03-16T02:29:57;95525.50;;;23.47;33.57
22389;BME280;11362;48.102;11.620;2023-03-16T02:32:26;95513.66;;;23.47;33.60
22389;BME280;11362;48.102;11.620;2023-03-16T02:34:54;95517.19;;;23.47;33.72
22389;BME280;11362;48.102;11.620;2023-03-16T02:37:20;95519.19;;;23.47;33.55
22389;BME280;11362;48.102;11.620;2023-03-16T02:39:46;95519.97;;;23.47;33.52
22389;BME280;11362;48.102;11.620;2023-03-16T02:42:14;95508.88;;;23.47;33.65
22389;BME280;11362;48.102;11.620;2023-03-16T02:44:42;95512.84;;;23.46;33.53
22389;BME280;11362;48.102;11.620;2023-03-16T02:47:33;95512.84;;;23.46;33.45
22389;BME280;11362;48.102;11.620;2023-03-16T02:49:59;95514.41;;;23.47;33.45
22389;BME280;11362;48.102;11.620;2023-03-16T02:52:25;95514.41;;;23.47;33.40
22389;BME280;11362;48.102;11.620;2023-03-16T02:54:50;95514.41;;;23.47;33.32
22389;BME280;11362;48.102;11.620;2023-03-16T02:57:15;95518.41;;;23.46;33.37
22389;BME280;11362;48.102;11.620;2023-03-16T02:59:41;95519.97;;;23.47;33.41
22389;BME280;11362;48.102;11.620;2023-03-16T03:02:06;95517.63;;;23.46;33.50
22389;BME280;11362;48.102;11.620;2023-03-16T03:04:31;95518.41;;;23.46;33.54
22389;BME280;11362;48.102;11.620;2023-03-16T03:06:57;95514.84;;;23.46;33.36
22389;BME280;11362;48.102;11.620;2023-03-16T03:09:22;95504.53;;;23.46;33.25
22389;BME280;11362;48.102;11.620;2023-03-16T03:11:47;95506.09;;;23.47;33.29
22389;BME280;11362;48.102;11.620;2023-03-16T03:14:13;95519.97;;;23.47;33.32
22389;BME280;11362;48.102;11.620;2023-03-16T03:16:38;95505.34;;;23.47;33.34
22389;BME280;11362;48.102;11.620;2023-03-16T03:19:03;95498.97;;;23.46;33.25
22389;BME280;11362;48.102;11.620;2023-03-16T03:21:29;95502.56;;;23.47;33.18
22389;BME280;11362;48.102;11.620;2023-03-16T03:23:54;95508.09;;;23.47;33.26
22389;BME280;11362;48.102;11.620;2023-03-16T03:26:19;95508.88;;;23.47;33.20
22389;BME280;11362;48.102;11.620;2023-03-16T03:28:45;95506.53;;;23.46;33.27
22389;BME280;11362;48.102;11.620;2023-03-16T03:31:19;95517.19;;;23.47;33.20
22389;BME280;11362;48.102;11.620;2023-03-16T03:33:44;95508.09;;;23.47;33.25
22389;BME280;11362;48.102;11.620;2023-03-16T03:36:10;95498.97;;;23.46;33.25
22389;BME280;11362;48.102;11.620;2023-03-16T03:38:36;95511.28;;;23.45;33.26
22389;BME280;11362;48.102;11.620;2023-03-16T03:41:02;95503.75;;;23.46;33.15
22389;BME280;11362;48.102;11.620;2023-03-16T03:43:27;95501.75;;;23.46;33.18
22389;BME280;11362;48.102;11.620;2023-03-16T03:45:56;95512.84;;;23.46;33.08
22389;BME280;11362;48.102;11.620;2023-03-16T03:48:21;95502.19;;;23.45;32.83
22389;BME280;11362;48.102;11.620;2023-03-16T03:50:46;95501.75;;;23.46;32.90
22389;BME280;11362;48.102;11.620;2023-03-16T03:53:12;95504.94;;;23.48;33.06
22389;BME280;11362;48.102;11.620;2023-03-16T03:55:37;95499.78;;;23.47;33.12
22389;BME280;11362;48.102;11.620;2023-03-16T03:58:02;95500.19;;;23.45;33.17
22389;BME280;11362;48.102;11.620;2023-03-16T04:00:28;95501.00;;;23.46;33.06
22389;BME280;11362;48.102;11.620;2023-03-16T04:02:53;95497.41;;;23.45;32.89
22389;BME280;11362;48.102;11.620;2023-03-16T04:05:18;95492.25;;;23.47;33.10
22389;BME280;11362;48.102;11.620;2023-03-16T04:07:43;95498.97;;;23.46;33.37
22389;BME280;11362;48.102;11.620;2023-03-16T04:10:09;95488.69;;;23.47;32.92
22389;BME280;11362;48.102;11.620;2023-03-16T04:12:34;95492.25;;;23.47;33.34
22389;BME280;11362;48.102;11.620;2023-03-16T04:15:00;95494.25;;;23.47;32.78
22389;BME280;11362;48.102;11.620;2023-03-16T04:17:25;95489.91;;;23.46;33.06
22389;BME280;11362;48.102;11.620;2023-03-16T04:19:50;95495.00;;;23.47;32.91
22389;BME280;11362;48.102;11.620;2023-03-16T04:22:16;95495.00;;;23.47;32.83
22389;BME280;11362;48.102;11.620;2023-03-16T04:24:41;95496.22;;;23.46;32.74
22389;BME280;11362;48.102;11.620;2023-03-16T04:27:06;95490.66;;;23.46;32.91
22389;BME280;11362;48.102;11.620;2023-03-16T04:29:32;95493.88;;;23.45;32.84
22389;BME280;11362;48.102;11.620;2023-03-16T04:31:57;95497.78;;;23.47;32.98
22389;BME280;11362;48.102;11.620;2023-03-16T04:34:23;95508.88;;;23.47;32.81
22389;BME280;11362;48.102;11.620;2023-03-16T04:36:48;95500.56;;;23.47;32.88
22389;BME280;11362;48.102;11.620;2023-03-16T04:39:13;95506.91;;;23.48;32.76
22389;BME280;11362;48.102;11.620;2023-03-16T04:41:38;95512.06;;;23.46;32.75
22389;BME280;11362;48.102;11.620;2023-03-16T04:44:04;95504.53;;;23.46;32.69
22389;BME280;11362;48.102;11.620;2023-03-16T04:46:29;95497.00;;;23.47;32.70
22389;BME280;11362;48.102;11.620;2023-03-16T04:48:54;95495.44;;;23.46;32.74
22389;BME280;11362;48.102;11.620;2023-03-16T04:51:19;95496.22;;;23.46;32.71
22389;BME280;11362;48.102;11.620;2023-03-16T04:53:45;95491.88;;;23.45;32.54
22389;BME280;11362;48.102;11.620;2023-03-16T04:56:10;95491.88;;;23.45;32.61
22389;BME280;11362;48.102;11.620;2023-03-16T04:58:35;95489.09;;;23.45;32.74
22389;BME280;11362;48.102;11.620;2023-03-16T05:01:01;95487.91;;;23.46;32.64
22389;BME280;11362;48.102;11.620;2023-03-16T05:03:26;95497.78;;;23.47;32.57
22389;BME280;11362;48.102;11.620;2023-03-16T05:05:51;95492.25;;;23.47;32.72
22389;BME280;11362;48.102;11.620;2023-03-16T05:08:17;95483.16;;;23.47;32.55
22389;BME280;11362;48.102;11.620;2023-03-16T05:10:42;95481.94;;;23.48;32.63
22389;BME280;11362;48.102;11.620;2023-03-16T05:13:07;95476.44;;;23.44;32.62
22389;BME280;11362;48.102;11.620;2023-03-16T05:15:33;95475.59;;;23.47;32.67
22389;BME280;11362;48.102;11.620;2023-03-16T05:17:58;95473.63;;;23.48;32.63
22389;BME280;11362;48.102;11.620;2023-03-16T05:20:24;95474.03;;;23.46;32.65
22389;BME280;11362;48.102;11.620;2023-03-16T05:22:49;95474.44;;;23.48;32.32
22389;BME280;11362;48.102;11.620;2023-03-16T05:25:16;95475.59;;;23.47;32.44
22389;BME280;11362;48.102;11.620;2023-03-16T05:27:43;95471.25;;;23.46;32.46
22389;BME280;11362;48.102;11.620;2023-03-16T05:30:10;95462.94;;;23.46;32.29
22389;BME280;11362;48.102;11.620;2023-03-16T05:32:36;95460.16;;;23.46;32.15
22389;BME280;11362;48.102;11.620;2023-03-16T05:35:02;95458.97;;;23.47;32.42
22389;BME280;11362;48.102;11.620;2023-03-16T05:37:28;95459.41;;;23.46;32.78
22389;BME280;11362;48.102;11.620;2023-03-16T05:39:53;95458.97;;;23.47;32.53
22389;BME280;11362;48.102;11.620;2023-03-16T05:42:19;95467.28;;;23.47;32.40
22389;BME280;11362;48.102;11.620;2023-03-16T05:44:44;95465.72;;;23.46;32.35
22389;BME280;11362;48.102;11.620;2023-03-16T05:47:09;95464.50;;;23.47;32.43
22389;BME280;11362;48.102;11.620;2023-03-16T05:49:35;95460.56;;;23.48;32.38
22389;BME280;11362;48.102;11.620;2023-03-16T05:52:00;95458.19;;;23.47;32.45
22389;BME280;11362;48.102;11.620;2023-03-16T05:54:25;95463.34;;;23.48;32.27
22389;BME280;11362;48.102;11.620;2023-03-16T05:56:50;95463.34;;;23.48;32.29
22389;BME280;11362;48.102;11.620;2023-03-16T05:59:16;95456.19;;;23.47;32.38
22389;BME280;11362;48.102;11.620;2023-03-16T06:01:41;95455.03;;;23.48;32.26
22389;BME280;11362;48.102;11.620;2023-03-16T06:04:06;95458.19;;;23.47;32.19
22389;BME280;11362;48.102;11.620;2023-03-16T06:06:32;95463.75;;;23.47;32.30
22389;BME280;11362;48.102;11.620;2023-03-16T06:08:57;95468.88;;;23.48;32.28
22389;BME280;11362;48.102;11.620;2023-03-16T06:11:22;95468.88;;;23.48;32.17
22389;BME280;11362;48.102;11.620;2023-03-16T06:13:47;95467.69;;;23.49;32.35
22389;BME280;11362;48.102;11.620;2023-03-16T06:16:13;95462.13;;;23.49;31.98
22389;BME280;11362;48.102;11.620;2023-03-16T06:18:38;95459.78;;;23.48;32.26
22389;BME280;11362;48.102;11.620;2023-03-16T06:21:04;95473.22;;;23.49;32.08
22389;BME280;11362;48.102;11.620;2023-03-16T06:23:29;95471.66;;;23.48;32.20
22389;BME280;11362;48.102;11.620;2023-03-16T06:25:55;95466.88;;;23.49;32.12
22389;BME280;11362;48.102;11.620;2023-03-16T06:28:21;95481.53;;;23.49;32.12
22389;BME280;11362;48.102;11.620;2023-03-16T06:30:47;95489.88;;;23.49;31.97
22389;BME280;11362;48.102;11.620;2023-03-16T06:33:12;95478.38;;;23.47;32.18
22389;BME280;11362;48.102;11.620;2023-03-16T06:35:38;95478.78;;;23.49;32.05
22389;BME280;11362;48.102;11.620;2023-03-16T06:38:03;95482.75;;;23.48;31.96
22389;BME280;11362;48.102;11.620;2023-03-16T06:40:29;95479.63;;;23.43;31.84
22389;BME280;11362;48.102;11.620;2023-03-16T06:42:54;95485.53;;;23.48;32.08
22389;BME280;11362;48.102;11.620;2023-03-16T06:45:19;95477.19;;;23.48;31.89
22389;BME280;11362;48.102;11.620;2023-03-16T06:47:45;95478.78;;;23.49;32.05
22389;BME280;11362;48.102;11.620;2023-03-16T06:50:10;95488.28;;;23.48;31.93
22389;BME280;11362;48.102;11.620;2023-03-16T06:52:36;95476.00;;;23.49;31.84
22389;BME280;11362;48.102;11.620;2023-03-16T06:55:01;95472.84;;;23.47;31.93
22389;BME280;11362;48.102;11.620;2023-03-16T06:57:26;95469.28;;;23.47;31.88
22389;BME280;11362;48.102;11.620;2023-03-16T06:59:52;95473.22;;;23.49;31.91
22389;BME280;11362;48.102;11.620;2023-03-16T07:02:17;95477.97;;;23.49;32.01
22389;BME280;11362;48.102;11.620;2023-03-16T07:04:42;95477.56;;;23.50;31.93
22389;BME280;11362;48.102;11.620;2023-03-16T07:07:08;95482.75;;;23.48;31.88
22389;BME280;11362;48.102;11.620;2023-03-16T07:09:34;95476.00;;;23.49;32.02
22389;BME280;11362;48.102;11.620;2023-03-16T07:11:59;95477.19;;;23.48;31.98
22389;BME280;11362;48.102;11.620;2023-03-16T07:14:24;95476.41;;;23.48;31.97
22389;BME280;11362;48.102;11.620;2023-03-16T07:16:49;95479.56;;;23.46;31.84
22389;BME280;11362;48.102;11.620;2023-03-16T07:19:15;95470.06;;;23.47;32.02
22389;BME280;11362;48.102;11.620;2023-03-16T07:21:40;95469.69;;;23.45;31.87
22389;BME280;11362;48.102;11.620;2023-03-16T07:24:07;95471.25;;;23.46;31.94
22389;BME280;11362;48.102;11.620;2023-03-16T07:26:32;95483.91;;;23.47;31.99
22389;BME280;11362;48.102;11.620;2023-03-16T07:28:58;95481.16;;;23.47;32.10
22389;BME280;11362;48.102;11.620;2023-03-16T07:31:23;95475.59;;;23.47;32.33
22389;BME280;11362;48.102;11.620;2023-03-16T07:33:49;95479.97;;;23.48;32.41
22389;BME280;11362;48.102;11.620;2023-03-16T07:36:15;95469.66;;;23.49;32.69
22389;BME280;11362;48.102;11.620;2023-03-16T07:38:40;95474.81;;;23.50;32.71
22389;BME280;11362;48.102;11.620;2023-03-16T07:41:06;95481.91;;;23.51;33.02
22389;BME280;11362;48.102;11.620;2023-03-16T07:43:31;95481.91;;;23.51;32.97
22389;BME280;11362;48.102;11.620;2023-03-16T07:45:57;95527.44;;;23.54;33.16
22389;BME280;11362;48.102;11.620;2023-03-16T07:48:22;95521.41;;;23.19;31.15
22389;BME280;11362;48.102;11.620;2023-03-16T07:50:48;95490.88;;;23.26;30.78
22389;BME280;11362;48.102;11.620;2023-03-16T07:53:13;95494.41;;;23.30;30.96
22389;BME280;11362;48.102;11.620;2023-03-16T07:55:38;95503.84;;;23.36;31.39
22389;BME280;11362;48.102;11.620;2023-03-16T07:58:04;95492.72;;;23.39;31.33
22389;BME280;11362;48.102;11.620;2023-03-16T08:00:29;95495.47;;;23.42;31.36
22389;BME280;11362;48.102;11.620;2023-03-16T08:02:54;95491.50;;;23.43;31.82
22389;BME280;11362;48.102;11.620;2023-03-16T08:05:20;95505.34;;;23.47;32.07
22389;BME280;11362;48.102;11.620;2023-03-16T08:07:45;95506.50;;;23.49;32.31
22389;BME280;11362;48.102;11.620;2023-03-16T08:10:10;95513.53;;;23.57;32.68
22389;BME280;11362;48.102;11.620;2023-03-16T08:12:36;95514.28;;;23.61;33.06
22389;BME280;11362;48.102;11.620;2023-03-16T08:15:01;95513.84;;;23.66;33.01
22389;BME280;11362;48.102;11.620;2023-03-16T08:17:27;95518.63;;;23.62;33.10
22389;BME280;11362;48.102;11.620;2023-03-16T08:19:52;95512.31;;;23.62;33.25
22389;BME280;11362;48.102;11.620;2023-03-16T08:22:17;95526.19;;;23.62;33.45
22389;BME280;11362;48.102;11.620;2023-03-16T08:24:43;95528.91;;;23.65;33.31
22389;BME280;11362;48.102;11.620;2023-03-16T08:27:08;95524.53;;;23.68;33.79
22389;BME280;11362;48.102;11.620;2023-03-16T08:29:33;95545.91;;;23.67;33.61
22389;BME280;11362;48.102;11.620;2023-03-16T08:31:59;95559.41;;;23.65;33.51
22389;BME280;11362;48.102;11.620;2023-03-16T08:34:24;95557.00;;;23.67;33.51
22389;BME280;11362;48.102;11.620;2023-03-16T08:36:49;95550.72;;;23.63;33.49
22389;BME280;11362;48.102;11.620;2023-03-16T08:39:14;95542.78;;;23.65;33.58
22389;BME280;11362;48.102;11.620;2023-03-16T08:41:41;95546.72;;;23.68;33.69
22389;BME280;11362;48.102;11.620;2023-03-16T08:44:07;95549.06;;;23.69;33.61
22389;BME280;11362;48.102;11.620;2023-03-16T08:46:33;95554.63;;;23.69;33.84
22389;BME280;11362;48.102;11.620;2023-03-16T08:48:59;95545.13;;;23.70;33.85
22389;BME280;11362;48.102;11.620;2023-03-16T08:51:24;95517.38;;;23.70;33.97
22389;BME280;11362;48.102;11.620;2023-03-16T08:53:49;95513.00;;;23.69;34.08
22389;BME280;11362;48.102;11.620;2023-03-16T08:56:15;95510.25;;;23.69;33.97
22389;BME280;11362;48.102;11.620;2023-03-16T08:58:41;95521.31;;;23.69;33.77
22389;BME280;11362;48.102;11.620;2023-03-16T09:01:06;95514.22;;;23.68;33.83
22389;BME280;11362;48.102;11.620;2023-03-16T09:03:33;95514.63;;;23.70;33.84
22389;BME280;11362;48.102;11.620;2023-03-16T09:06:07;95509.06;;;23.70;34.00
22389;BME280;11362;48.102;11.620;2023-03-16T09:08:32;95509.44;;;23.72;33.99
22389;BME280;11362;48.102;11.620;2023-03-16T09:11:03;95504.66;;;23.73;34.21
22389;BME280;11362;48.102;11.620;2023-03-16T09:13:29;95512.53;;;23.78;34.50
22389;BME280;11362;48.102;11.620;2023-03-16T09:15:55;95509.31;;;23.83;34.22
22389;BME280;11362;48.102;11.620;2023-03-16T09:18:20;95503.78;;;23.83;34.16
22389;BME280;11362;48.102;11.620;2023-03-16T09:20:45;95528.34;;;23.84;34.57
22389;BME280;11362;48.102;11.620;2023-03-16T09:23:10;95510.88;;;23.87;34.37
22389;BME280;11362;48.102;11.620;2023-03-16T09:25:36;95514.84;;;23.86;34.13
22389;BME280;11362;48.102;11.620;2023-03-16T09:28:01;95509.31;;;23.83;34.13
22389;BME280;11362;48.102;11.620;2023-03-16T09:30:26;95512.13;;;23.79;33.97
22389;BME280;11362;48.102;11.620;2023-03-16T09:32:52;95514.91;;;23.79;33.96
22389;BME280;11362;48.102;11.620;2023-03-16T09:35:17;95514.88;;;23.83;34.09
22389;BME280;11362;48.102;11.620;2023-03-16T09:37:42;95509.31;;;23.86;34.12
22389;BME280;11362;48.102;11.620;2023-03-16T09:40:20;95511.25;;;23.89;33.92
22389;BME280;11362;48.102;11.620;2023-03-16T09:45:36;95520.00;;;23.84;33.93
22389;BME280;11362;48.102;11.620;2023-03-16T09:48:08;95513.69;;;23.80;34.05
22389;BME280;11362;48.102;11.620;2023-03-16T09:50:37;95509.72;;;23.81;33.78
22389;BME280;11362;48.102;11.620;2023-03-16T09:55:41;95517.63;;;23.86;33.17
22389;BME280;11362;48.102;11.620;2023-03-16T09:58:18;95507.72;;;23.85;32.97
22389;BME280;11362;48.102;11.620;2023-03-16T10:01:15;95502.97;;;23.82;33.13
22389;BME280;11362;48.102;11.620;2023-03-16T10:03:50;95502.56;;;23.84;33.19
22389;BME280;11362;48.102;11.620;2023-03-16T10:06:18;95504.53;;;23.83;32.87
22389;BME280;11362;48.102;11.620;2023-03-16T10:11:41;95479.22;;;23.81;32.97
22389;BME280;11362;48.102;11.620;2023-03-16T10:17:16;95474.88;;;23.80;32.99
22389;BME280;11362;48.102;11.620;2023-03-16T10:20:01;95476.81;;;23.83;32.99
22389;BME280;11362;48.102;11.620;2023-03-16T10:22:32;95479.22;;;23.81;32.96
22389;BME280;11362;48.102;11.620;2023-03-16T10:25:03;95491.09;;;23.82;32.92
22389;BME280;11362;48.102;11.620;2023-03-16T10:27:34;95493.88;;;23.82;32.84
22389;BME280;11362;48.102;11.620;2023-03-16T10:30:01;95493.06;;;23.81;32.70
22389;BME280;11362;48.102;11.620;2023-03-16T10:32:30;95490.31;;;23.81;32.64
22389;BME280;11362;48.102;11.620;2023-03-16T10:35:01;95487.91;;;23.83;32.64
22389;BME280;11362;48.102;11.620;2023-03-16T10:37:29;95485.13;;;23.83;32.73
22389;BME280;11362;48.102;11.620;2023-03-16T10:39:54;95474.03;;;23.83;32.59
22389;BME280;11362;48.102;11.620;2023-03-16T10:42:20;95479.16;;;23.85;32.89
22389;BME280;11362;48.102;11.620;2023-03-16T10:44:45;95483.16;;;23.84;32.74
22389;BME280;11362;48.102;11.620;2023-03-16T10:47:17;95481.94;;;23.85;32.93
22389;BME280;11362;48.102;11.620;2023-03-16T10:49:44;95478.41;;;23.84;32.82
22389;BME280;11362;48.102;11.620;2023-03-16T10:52:18;95449.84;;;23.84;32.69
22389;BME280;11362;48.102;11.620;2023-03-16T10:54:57;95458.56;;;23.86;32.71
22389;BME280;11362;48.102;11.620;2023-03-16T10:57:32;95449.03;;;23.87;32.92
22389;BME280;11362;48.102;11.620;2023-03-16T11:00:07;95445.88;;;23.88;32.91
22389;BME280;11362;48.102;11.620;2023-03-16T11:02:36;95469.63;;;23.89;33.21
22389;BME280;11362;48.102;11.620;2023-03-16T11:05:24;95460.09;;;23.90;33.47
22389;BME280;11362;48.102;11.620;2023-03-16T11:08:12;95455.25;;;23.98;33.76
22389;BME280;11362;48.102;11.620;2023-03-16T11:10:40;95457.19;;;24.01;34.16
22389;BME280;11362;48.102;11.620;2023-03-16T11:13:16;95453.63;;;24.04;34.04
22389;BME280;11362;48.102;11.620;2023-03-16T11:18:26;95447.25;;;24.03;34.22
22389;BME280;11362;48.102;11.620;2023-03-16T11:20:52;95447.25;;;24.03;34.31
22389;BME280;11362;48.102;11.620;2023-03-16T11:23:23;95438.16;;;24.03;34.28
22389;BME280;11362;48.102;11.620;2023-03-16T11:25:55;95440.94;;;24.03;34.52
22389;BME280;11362;48.102;11.620;2023-03-16T11:28:36;95436.56;;;24.02;34.21
22389;BME280;11362;48.102;11.620;2023-03-16T11:31:16;95431.03;;;24.02;34.42
22389;BME280;11362;48.102;11.620;2023-03-16T11:33:43;95428.69;;;24.00;34.27
22389;BME280;11362;48.102;11.620;2023-03-16T11:38:52;95430.69;;;23.96;33.84
22389;BME280;11362;48.102;11.620;2023-03-16T11:41:27;95421.69;;;23.89;32.93
22389;BME280;11362;48.102;11.620;2023-03-16T11:44:38;95420.09;;;23.88;33.10
22389;BME280;11362;48.102;11.620;2023-03-16T11:50:42;95404.63;;;23.90;33.15
22389;BME280;11362;48.102;11.620;2023-03-16T11:56:03;95395.53;;;23.90;32.94
22389;BME280;11362;48.102;11.620;2023-03-16T11:58:56;95383.22;;;23.91;32.87
22389;BME280;11362;48.102;11.620;2023-03-16T12:04:51;95380.44;;;23.91;33.10
22389;BME280;11362;48.102;11.620;2023-03-16T12:08:03;95363.00;;;23.90;32.93
22389;BME280;11362;48.102;11.620;2023-03-16T12:16:04;95359.81;;;23.92;33.00
22389;BME280;11362;48.102;11.620;2023-03-16T12:18:46;95357.84;;;23.92;32.92
22389;BME280;11362;48.102;11.620;2023-03-16T12:21:16;95353.47;;;23.91;33.00
22389;BME280;11362;48.102;11.620;2023-03-16T12:23:55;95342.00;;;23.89;32.89
22389;BME280;11362;48.102;11.620;2023-03-16T12:26:26;95342.81;;;23.90;32.59
22389;BME280;11362;48.102;11.620;2023-03-16T12:28:53;95338.03;;;23.90;32.90
22389;BME280;11362;48.102;11.620;2023-03-16T12:31:23;95349.13;;;23.90;32.94
22389;BME280;11362;48.102;11.620;2023-03-16T12:39:31;95340.44;;;23.88;32.75
22389;BME280;11362;48.102;11.620;2023-03-16T12:45:11;95334.03;;;23.91;32.37
22389;BME280;11362;48.102;11.620;2023-03-16T12:50:10;95334.03;;;23.91;32.24
22389;BME280;11362;48.102;11.620;2023-03-16T12:55:38;95322.94;;;23.91;32.30
22389;BME280;11362;48.102;11.620;2023-03-16T12:58:05;95292.44;;;23.91;32.31
22389;BME280;11362;48.102;11.620;2023-03-16T13:00:37;95296.81;;;23.92;32.37
22389;BME280;11362;48.102;11.620;2023-03-16T13:03:05;95290.47;;;23.92;32.06
22389;BME280;11362;48.102;11.620;2023-03-16T13:05:35;95315.03;;;23.93;32.09
22389;BME280;11362;48.102;11.620;2023-03-16T13:08:07;95313.00;;;23.94;32.15
22389;BME280;11362;48.102;11.620;2023-03-16T13:10:34;95315.03;;;23.93;32.06
22389;BME280;11362;48.102;11.620;2023-03-16T13:13:07;95307.84;;;23.96;32.18
22389;BME280;11362;48.102;11.620;2023-03-16T13:15:33;95309.41;;;23.97;32.08
22389;BME280;11362;48.102;11.620;2023-03-16T13:20:30;95305.44;;;23.98;32.37
22389;BME280;11362;48.102;11.620;2023-03-16T13:26:20;95302.59;;;24.01;32.07
22389;BME280;11362;48.102;11.620;2023-03-16T13:28:51;95298.63;;;24.02;32.27
22389;BME280;11362;48.102;11.620;2023-03-16T13:31:35;95294.63;;;24.03;32.31
22389;BME280;11362;48.102;11.620;2023-03-16T13:34:01;95298.63;;;24.02;32.15
22389;BME280;11362;48.102;11.620;2023-03-16T13:36:27;95301.00;;;24.04;32.11
22389;BME280;11362;48.102;11.620;2023-03-16T13:39:05;95306.09;;;24.05;32.17
22389;BME280;11362;48.102;11.620;2023-03-16T13:41:35;95309.25;;;24.07;32.14
22389;BME280;11362;48.102;11.620;2023-03-16T13:44:00;95296.16;;;24.08;32.23
22389;BME280;11362;48.102;11.620;2023-03-16T13:46:28;95296.94;;;24.08;32.28
22389;BME280;11362;48.102;11.620;2023-03-16T13:48:57;95301.28;;;24.09;32.06